Time;durP1;ratioP1;P1;durP2;ratioP2;P2;SDS_P1;SDS_P2;PMS_P1;PMS_P2;Temp;Humidity;BMP_temperature;BMP_pressure;BME280_temperature;BME280_humidity;BME280_pressure;Samples;Min_cycle;Max_cycle;Signal;HPM_P1;HPM_P2
2024/02/03 00:01:04;;;;;;;12.30;6.53;;;;;;;3.82;55.69;95412.97;4158568;28;20057;-69
2024/02/03 00:03:05;;;;;;;10.05;6.22;;;;;;;3.78;55.19;95412.31;4152159;28;20045;-68
2024/02/03 00:05:07;;;;;;;9.25;6.60;;;;;;;3.76;54.99;95410.75;4156312;28;20049;-70
2024/02/03 00:07:09;;;;;;;11.90;6.07;;;;;;;3.72;55.69;95404.94;4155768;28;20049;-69
2024/02/03 00:09:12;;;;;;;9.15;5.65;;;;;;;3.72;55.30;95401.53;4178155;28;20127;-69
2024/02/03 00:11:14;;;;;;;9.95;5.72;;;;;;;3.74;55.59;95404.84;4173728;28;20521;-68
2024/02/03 00:13:16;;;;;;;9.43;5.35;;;;;;;3.77;54.97;95402.91;4173595;28;20080;-69
2024/02/03 00:15:18;;;;;;;10.95;5.13;;;;;;;3.76;54.86;95409.00;4178917;28;20144;-69
2024/02/03 00:17:20;;;;;;;9.25;5.35;;;;;;;3.71;54.75;95408.47;4170843;28;20134;-68
2024/02/03 00:19:22;;;;;;;9.50;5.10;;;;;;;3.67;55.19;95402.66;4167406;28;20057;-71
2024/02/03 00:21:24;;;;;;;9.50;5.78;;;;;;;3.71;55.19;95394.69;4161119;28;20395;-70
2024/02/03 00:23:25;;;;;;;10.75;4.43;;;;;;;3.76;55.23;95400.41;4179177;28;20119;-69
2024/02/03 00:25:27;;;;;;;8.05;4.95;;;;;;;3.82;55.09;95410.38;4161897;28;20068;-68
2024/02/03 00:27:29;;;;;;;9.05;4.53;;;;;;;3.77;54.67;95415.03;4177438;28;20052;-69
2024/02/03 00:29:31;;;;;;;9.20;4.53;;;;;;;3.76;55.08;95413.34;4181739;28;20454;-67
2024/02/03 00:31:33;;;;;;;8.90;4.43;;;;;;;3.68;55.03;95404.31;4159247;28;20061;-67
2024/02/03 00:33:35;;;;;;;7.53;4.70;;;;;;;3.66;55.07;95406.19;4175148;28;20464;-68
2024/02/03 00:35:38;;;;;;;7.65;4.30;;;;;;;3.63;55.16;95398.59;4183000;28;20044;-67
2024/02/03 00:37:40;;;;;;;9.45;4.75;;;;;;;3.64;55.50;95391.69;4172065;28;20067;-68
2024/02/03 00:39:42;;;;;;;7.78;4.72;;;;;;;3.66;55.24;95401.00;4156544;28;20484;-70
2024/02/03 00:41:44;;;;;;;8.60;4.78;;;;;;;3.68;54.80;95395.72;4168901;28;20099;-69
2024/02/03 00:43:46;;;;;;;8.48;4.35;;;;;;;3.59;55.21;95397.16;4174362;28;20053;-67
2024/02/03 00:45:48;;;;;;;7.72;4.55;;;;;;;3.68;54.82;95388.78;4157667;28;20578;-70
2024/02/03 00:47:49;;;;;;;9.90;4.38;;;;;;;3.68;55.10;95383.59;4176760;28;20045;-68
2024/02/03 00:49:51;;;;;;;10.45;4.30;;;;;;;3.70;54.97;95386.09;4177091;28;20132;-69
2024/02/03 00:51:54;;;;;;;7.82;4.70;;;;;;;3.66;54.89;95384.63;4163713;28;20049;-67
2024/02/03 00:53:56;;;;;;;10.13;4.47;;;;;;;3.68;54.94;95378.41;4176284;28;20041;-67
2024/02/03 00:56:00;;;;;;;11.70;5.15;;;;;;;3.65;54.87;95373.41;4138432;28;20106;-69
2024/02/03 00:58:02;;;;;;;9.15;4.68;;;;;;;3.65;55.15;95383.78;4160266;28;20115;-69
2024/02/03 01:00:06;;;;;;;9.82;5.22;;;;;;;3.64;55.65;95378.72;4164516;28;20487;-68
2024/02/03 01:02:08;;;;;;;9.52;5.25;;;;;;;3.67;55.20;95376.75;4141366;28;20682;-67
2024/02/03 01:04:10;;;;;;;11.20;5.18;;;;;;;3.42;55.94;95371.47;4174367;28;20087;-70
2024/02/03 01:06:12;;;;;;;10.85;5.00;;;;;;;3.44;55.69;95374.81;4185326;28;20452;-71
2024/02/03 01:08:14;;;;;;;7.75;5.03;;;;;;;3.52;55.89;95375.16;4164333;28;20153;-68
2024/02/03 01:10:16;;;;;;;9.52;5.40;;;;;;;3.58;55.42;95373.94;4184737;28;20079;-69
2024/02/03 01:12:18;;;;;;;19.80;15.48;;;;;;;3.46;55.69;95378.13;4181942;28;20115;-69
2024/02/03 01:14:20;;;;;;;19.83;12.52;;;;;;;3.26;56.10;95377.66;4155376;28;20567;-69
2024/02/03 01:16:23;;;;;;;13.02;9.48;;;;;;;3.01;56.87;95383.56;4174309;28;20063;-70
2024/02/03 01:18:25;;;;;;;14.00;9.60;;;;;;;2.80;57.38;95382.31;4181870;28;20041;-68
2024/02/03 01:20:27;;;;;;;20.10;8.70;;;;;;;2.78;57.49;95382.41;4161684;28;20120;-68
2024/02/03 01:22:29;;;;;;;12.10;7.65;;;;;;;2.61;57.76;95378.28;4173088;28;20057;-68
2024/02/03 01:24:31;;;;;;;15.05;9.27;;;;;;;2.61;58.02;95380.03;4181872;28;20041;-71
2024/02/03 01:26:33;;;;;;;15.80;8.77;;;;;;;2.44;58.51;95374.13;4180496;28;20187;-70
2024/02/03 01:28:35;;;;;;;16.17;7.43;;;;;;;2.65;58.28;95366.81;4185218;28;20080;-67
2024/02/03 01:30:36;;;;;;;14.10;8.13;;;;;;;2.68;57.96;95365.78;4181165;28;20052;-68
2024/02/03 01:32:38;;;;;;;10.13;6.43;;;;;;;2.83;58.04;95357.06;4160308;28;20049;-69
2024/02/03 01:34:40;;;;;;;12.77;7.55;;;;;;;3.01;57.60;95362.00;4163622;28;20140;-67
2024/02/03 01:36:42;;;;;;;10.73;6.68;;;;;;;3.11;57.29;95357.91;4156534;28;20077;-68
2024/02/03 01:38:48;;;;;;;10.63;5.78;;;;;;;3.17;56.87;95357.53;4180046;28;20045;-68
2024/02/03 01:40:50;;;;;;;7.57;5.40;;;;;;;3.23;56.43;95372.69;4191245;28;20119;-68
2024/02/03 01:42:58;;;;;;;8.23;5.55;;;;;;;3.28;56.02;95355.09;4181353;28;20447;-68
2024/02/03 01:45:00;;;;;;;9.93;5.85;;;;;;;3.31;55.91;95358.41;4146685;28;20125;-70
2024/02/03 01:47:03;;;;;;;13.38;4.78;;;;;;;3.32;56.00;95345.38;4180254;28;20380;-70
2024/02/03 01:49:04;;;;;;;9.30;5.03;;;;;;;3.36;56.00;95343.41;4156452;28;20046;-66
2024/02/03 01:51:07;;;;;;;8.15;4.68;;;;;;;3.37;55.58;95332.94;4164547;28;20493;-69
2024/02/03 01:53:09;;;;;;;8.95;4.95;;;;;;;3.38;56.12;95329.44;4183454;28;20071;-70
2024/02/03 01:55:11;;;;;;;10.30;5.45;;;;;;;3.33;55.83;95328.06;4160027;28;20804;-67
2024/02/03 01:57:14;;;;;;;9.52;5.05;;;;;;;3.34;56.02;95321.97;4164488;28;20057;-69
2024/02/03 01:59:16;;;;;;;10.57;5.18;;;;;;;3.38;55.86;95326.84;4178218;28;20137;-68
2024/02/03 02:01:18;;;;;;;10.45;5.07;;;;;;;3.38;55.51;95323.44;4182861;28;20527;-66
2024/02/03 02:03:20;;;;;;;10.90;4.40;;;;;;;3.38;55.46;95320.84;4159604;28;21530;-69
2024/02/03 02:05:24;;;;;;;11.15;5.28;;;;;;;3.41;55.58;95311.09;4144161;28;20069;-68
2024/02/03 02:07:25;;;;;;;9.07;4.60;;;;;;;3.46;55.14;95322.00;4178170;28;20396;-66
2024/02/03 02:09:28;;;;;;;9.73;4.72;;;;;;;3.41;55.14;95323.22;4174251;28;20036;-69
2024/02/03 02:11:31;;;;;;;12.88;5.57;;;;;;;3.33;55.26;95325.47;4171165;28;20227;-68
2024/02/03 02:13:33;;;;;;;8.82;4.82;;;;;;;3.36;55.77;95322.69;4176172;28;20484;-67
2024/02/03 02:15:35;;;;;;;10.35;5.80;;;;;;;3.36;55.84;95330.47;4181467;28;20534;-70
2024/02/03 02:17:37;;;;;;;8.00;4.60;;;;;;;3.34;55.77;95327.97;4164942;28;20524;-68
2024/02/03 02:19:39;;;;;;;8.55;5.10;;;;;;;3.26;55.43;95314.69;4180007;28;20062;-69
2024/02/03 02:21:41;;;;;;;10.57;4.72;;;;;;;3.28;55.76;95318.00;4192576;28;20095;-67
2024/02/03 02:23:42;;;;;;;9.43;4.93;;;;;;;3.23;55.27;95313.13;4172822;28;20077;-68
2024/02/03 02:25:44;;;;;;;10.52;5.20;;;;;;;3.28;55.16;95312.81;4178619;28;20096;-69
2024/02/03 02:27:46;;;;;;;8.23;5.00;;;;;;;3.26;55.16;95315.50;4159298;28;20085;-69
2024/02/03 02:29:52;;;;;;;7.60;4.90;;;;;;;3.38;55.32;95318.25;4174290;28;20053;-68
2024/02/03 02:31:54;;;;;;;10.35;5.20;;;;;;;3.41;54.98;95313.69;4147125;28;20054;-67
2024/02/03 02:33:55;;;;;;;9.95;5.13;;;;;;;3.39;55.22;95312.13;4170656;28;20136;-70
2024/02/03 02:35:57;;;;;;;8.73;5.60;;;;;;;3.41;54.96;95315.44;4179720;28;20044;-67
2024/02/03 02:37:59;;;;;;;10.25;5.30;;;;;;;3.40;55.12;95313.78;4189812;28;20140;-69
2024/02/03 02:40:01;;;;;;;9.18;5.15;;;;;;;3.48;54.68;95314.97;4154818;28;20084;-68
2024/02/03 02:42:03;;;;;;;10.27;5.10;;;;;;;3.47;54.99;95315.06;4186172;28;20159;-67
2024/02/03 02:44:05;;;;;;;8.38;5.30;;;;;;;3.54;54.57;95313.72;4192462;28;20049;-68
2024/02/03 02:46:08;;;;;;;8.75;5.05;;;;;;;3.47;53.96;95304.69;4191164;28;20110;-66
2024/02/03 02:48:10;;;;;;;10.43;5.30;;;;;;;3.54;54.03;95303.34;4192562;28;20049;-69
2024/02/03 02:50:12;;;;;;;10.45;5.35;;;;;;;3.60;53.81;95299.53;4190024;28;20047;-69
2024/02/03 02:52:14;;;;;;;9.80;5.00;;;;;;;3.64;53.90;95308.75;4189423;28;20091;-69
2024/02/03 02:54:15;;;;;;;8.25;5.43;;;;;;;3.65;53.73;95305.22;4160843;28;20061;-69
2024/02/03 02:56:17;;;;;;;8.50;4.90;;;;;;;3.72;53.47;95295.28;4159492;28;20073;-68
2024/02/03 02:58:20;;;;;;;8.30;5.10;;;;;;;3.68;53.42;95295.50;4181229;28;20420;-68
2024/02/03 03:00:22;;;;;;;8.07;4.72;;;;;;;3.58;53.39;95293.63;4161236;28;20088;-69
2024/02/03 03:02:24;;;;;;;8.50;4.55;;;;;;;3.65;53.23;95287.09;4159757;28;20056;-69
2024/02/03 03:04:26;;;;;;;11.50;5.07;;;;;;;3.67;53.49;95280.88;4160388;28;20532;-69
2024/02/03 03:06:28;;;;;;;8.38;4.60;;;;;;;3.61;53.69;95278.69;4180957;28;20119;-68
2024/02/03 03:08:30;;;;;;;8.07;4.80;;;;;;;3.61;53.59;95281.28;4157830;28;20112;-69
2024/02/03 03:10:32;;;;;;;9.02;5.00;;;;;;;3.60;52.84;95279.63;4149625;28;20041;-68
2024/02/03 03:12:34;;;;;;;9.05;4.70;;;;;;;3.62;53.26;95277.75;4160238;28;20410;-69
2024/02/03 03:14:36;;;;;;;7.80;4.57;;;;;;;3.68;53.15;95277.34;4160476;28;20143;-70
2024/02/03 03:16:38;;;;;;;10.05;4.93;;;;;;;3.76;52.55;95276.81;4169403;28;20112;-68
2024/02/03 03:18:40;;;;;;;10.10;5.07;;;;;;;3.77;52.53;95282.84;4159958;28;20567;-68
2024/02/03 03:20:43;;;;;;;7.63;5.07;;;;;;;3.82;52.77;95279.00;4160292;28;20049;-68
2024/02/03 03:22:44;;;;;;;9.27;4.68;;;;;;;3.83;52.59;95280.69;4158550;28;20155;-69
2024/02/03 03:24:46;;;;;;;10.18;4.90;;;;;;;3.79;52.44;95281.81;4160895;28;20053;-69
2024/02/03 03:26:48;;;;;;;7.20;4.93;;;;;;;3.72;52.59;95280.56;4177959;28;20080;-67
2024/02/03 03:28:50;;;;;;;9.25;5.00;;;;;;;3.69;52.66;95281.59;4173214;28;20049;-68
2024/02/03 03:30:52;;;;;;;9.98;4.80;;;;;;;3.67;52.61;95285.22;4156133;28;20378;-69
2024/02/03 03:32:54;;;;;;;7.25;4.68;;;;;;;3.71;52.72;95278.91;4152924;28;21934;-68
2024/02/03 03:34:56;;;;;;;10.60;4.95;;;;;;;3.69;52.42;95279.00;4177899;28;20125;-68
2024/02/03 03:36:58;;;;;;;9.25;4.88;;;;;;;3.71;52.97;95280.69;4183091;28;20048;-68
2024/02/03 03:38:59;;;;;;;8.35;4.72;;;;;;;3.75;52.51;95274.34;4162963;28;20049;-69
2024/02/03 03:41:01;;;;;;;7.68;4.40;;;;;;;3.69;52.25;95281.59;4184127;28;20076;-68
2024/02/03 03:43:07;;;;;;;10.00;4.72;;;;;;;3.74;52.50;95283.88;4181513;28;20075;-68
2024/02/03 03:45:09;;;;;;;7.15;4.60;;;;;;;3.66;52.71;95275.81;4149842;28;20125;-68
2024/02/03 03:47:14;;;;;;;10.35;4.50;;;;;;;3.62;52.88;95284.72;4175943;28;20479;-69
2024/02/03 03:49:16;;;;;;;8.55;4.80;;;;;;;3.59;52.96;95280.56;4162194;28;20037;-69
2024/02/03 03:51:18;;;;;;;9.60;4.68;;;;;;;3.64;53.36;95283.69;4180376;28;20053;-68
2024/02/03 03:53:20;;;;;;;10.07;4.97;;;;;;;3.66;53.22;95274.03;4163052;28;20373;-66
2024/02/03 03:55:22;;;;;;;8.82;4.68;;;;;;;3.69;53.21;95284.19;4170920;28;20050;-68
2024/02/03 03:57:24;;;;;;;8.80;5.15;;;;;;;3.67;52.67;95264.50;4155903;28;20085;-69
2024/02/03 03:59:27;;;;;;;9.48;5.13;;;;;;;3.69;52.72;95276.41;4176268;28;20052;-68
2024/02/03 04:01:29;;;;;;;9.18;4.88;;;;;;;3.72;52.67;95274.53;4164356;28;20076;-69
2024/02/03 04:03:31;;;;;;;11.13;5.40;;;;;;;3.75;53.15;95267.41;4144108;28;20101;-69
2024/02/03 04:05:33;;;;;;;9.07;5.63;;;;;;;3.69;53.00;95267.81;4171567;28;20112;-70
2024/02/03 04:07:34;;;;;;;7.47;5.03;;;;;;;3.59;53.03;95270.22;4184333;28;20128;-69
2024/02/03 04:09:36;;;;;;;9.45;5.50;;;;;;;3.57;53.30;95266.88;4182815;28;20119;-70
2024/02/03 04:11:39;;;;;;;9.65;4.88;;;;;;;3.59;53.36;95270.22;4158680;28;20057;-68
2024/02/03 04:13:40;;;;;;;9.10;4.55;;;;;;;3.63;53.46;95268.22;4181551;28;20070;-69
2024/02/03 04:15:42;;;;;;;10.90;5.20;;;;;;;3.56;53.99;95269.56;4182846;28;20071;-68
2024/02/03 04:17:44;;;;;;;8.98;5.57;;;;;;;3.54;54.32;95272.25;4183242;28;20052;-69
2024/02/03 04:19:46;;;;;;;9.10;5.00;;;;;;;3.41;54.19;95267.06;4169101;28;20112;-68
2024/02/03 04:21:48;;;;;;;10.65;5.63;;;;;;;3.49;53.73;95263.97;4171196;28;20044;-68
2024/02/03 04:23:50;;;;;;;9.73;5.65;;;;;;;3.52;53.99;95268.94;4141757;28;20079;-68
2024/02/03 04:25:52;;;;;;;7.45;5.47;;;;;;;3.47;53.68;95271.03;4160758;28;20444;-69
2024/02/03 04:27:54;;;;;;;9.52;5.53;;;;;;;3.45;54.21;95265.94;4187685;28;20041;-69
2024/02/03 04:29:56;;;;;;;8.00;5.05;;;;;;;3.45;54.47;95268.53;4192863;28;20447;-69
2024/02/03 04:31:57;;;;;;;10.82;5.47;;;;;;;3.44;54.70;95263.44;4178795;28;20132;-69
2024/02/03 04:34:01;;;;;;;11.23;5.63;;;;;;;3.37;54.44;95260.44;4182344;28;20067;-67
2024/02/03 04:36:04;;;;;;;;;;;;;;;3.41;54.71;95271.41;4172057;28;20068;-68
2024/02/03 04:38:06;;;;;;;13.73;5.60;;;;;;;3.38;54.53;95266.47;4156051;28;19921;-68
2024/02/03 04:40:08;;;;;;;8.98;5.40;;;;;;;3.35;54.69;95267.47;4176495;28;20049;-68
2024/02/03 04:42:10;;;;;;;8.50;5.32;;;;;;;3.33;55.01;95264.13;4148099;28;20084;-70
2024/02/03 04:44:12;;;;;;;13.77;5.10;;;;;;;3.38;54.70;95267.28;4176609;28;20056;-68
2024/02/03 04:46:14;;;;;;;10.60;5.05;;;;;;;3.38;54.70;95266.47;4177636;28;20119;-67
2024/02/03 04:48:15;;;;;;;7.72;4.90;;;;;;;3.41;54.45;95263.66;4181149;28;20407;-69
2024/02/03 04:50:17;;;;;;;7.07;5.07;;;;;;;3.51;54.88;95263.84;4179638;28;20052;-69
2024/02/03 04:52:19;;;;;;;10.45;4.75;;;;;;;3.51;54.02;95271.63;4153039;28;20054;-70
2024/02/03 04:54:21;;;;;;;11.07;5.20;;;;;;;3.43;54.11;95272.16;4184218;28;20056;-69
2024/02/03 04:56:23;;;;;;;9.15;4.97;;;;;;;3.45;54.57;95265.09;4178753;28;20084;-69
2024/02/03 04:58:25;;;;;;;10.85;5.90;;;;;;;3.55;54.29;95265.31;4178953;28;20056;-68
2024/02/03 05:00:26;;;;;;;9.80;4.80;;;;;;;3.48;54.04;95273.50;4178507;28;20512;-69
2024/02/03 05:02:28;;;;;;;11.48;5.35;;;;;;;3.54;53.86;95285.22;4162189;28;20084;-68
2024/02/03 05:04:30;;;;;;;10.35;5.50;;;;;;;3.56;53.98;95283.34;4179803;28;20059;-68
2024/02/03 05:06:32;;;;;;;8.18;5.18;;;;;;;3.55;54.52;95292.06;4181952;28;20491;-70
2024/02/03 05:08:34;;;;;;;9.02;5.03;;;;;;;3.58;53.89;95293.63;4154060;28;20111;-69
2024/02/03 05:10:36;;;;;;;10.07;5.35;;;;;;;3.55;53.86;95289.47;4179741;28;20074;-69
2024/02/03 05:12:38;;;;;;;10.30;5.15;;;;;;;3.49;53.79;95292.47;4178518;28;20045;-70
2024/02/03 05:14:40;;;;;;;8.52;4.93;;;;;;;3.52;54.08;95291.44;4172295;28;20068;-70
2024/02/03 05:16:42;;;;;;;7.90;4.85;;;;;;;3.48;53.81;95294.25;4160350;28;20049;-69
2024/02/03 05:18:44;;;;;;;8.18;4.97;;;;;;;3.46;53.69;95296.09;4161380;28;20064;-70
2024/02/03 05:20:46;;;;;;;10.90;5.10;;;;;;;3.52;54.24;95297.44;4173333;28;20059;-68
2024/02/03 05:22:47;;;;;;;10.82;4.75;;;;;;;3.54;53.88;95290.38;4182920;28;20048;-69
2024/02/03 05:24:49;;;;;;;8.80;5.15;;;;;;;3.57;54.13;95295.38;4172179;28;20123;-68
2024/02/03 05:26:51;;;;;;;9.80;5.00;;;;;;;3.47;53.51;95300.34;4157593;28;20463;-68
2024/02/03 05:28:53;;;;;;;6.32;4.30;;;;;;;3.39;54.22;95309.53;4180665;28;20045;-68
2024/02/03 05:30:55;;;;;;;10.05;5.03;;;;;;;3.53;54.12;95299.13;4178659;28;20334;-71
2024/02/03 05:32:57;;;;;;;8.38;4.60;;;;;;;3.55;53.87;95289.47;4144681;28;20050;-70
2024/02/03 05:34:59;;;;;;;8.18;5.20;;;;;;;3.51;53.79;95289.75;4174654;28;20051;-69
2024/02/03 05:37:00;;;;;;;9.35;4.55;;;;;;;3.53;53.47;95283.56;4187115;28;20334;-69
2024/02/03 05:39:03;;;;;;;10.32;4.95;;;;;;;3.44;53.67;95297.09;4180895;28;20049;-68
2024/02/03 05:41:06;;;;;;;9.77;4.38;;;;;;;3.33;53.90;95289.22;4179977;28;20049;-70
2024/02/03 05:43:08;;;;;;;8.82;4.90;;;;;;;3.34;53.86;95291.72;4176869;28;20041;-70
2024/02/03 05:45:10;;;;;;;8.60;4.57;;;;;;;3.43;54.16;95287.69;4185330;28;20044;-69
2024/02/03 05:47:12;;;;;;;8.85;4.85;;;;;;;3.33;53.98;95277.09;4165508;28;20049;-68
2024/02/03 05:49:14;;;;;;;12.50;4.97;;;;;;;3.20;54.22;95266.72;4179500;28;20128;-70
2024/02/03 05:51:17;;;;;;;9.90;5.00;;;;;;;3.17;54.27;95274.69;4184269;28;20529;-70
2024/02/03 05:53:19;;;;;;;8.65;4.57;;;;;;;3.24;54.23;95260.41;4180320;28;20064;-69
2024/02/03 05:55:21;;;;;;;10.18;4.80;;;;;;;3.30;54.52;95258.34;4173145;28;20045;-70
2024/02/03 05:57:23;;;;;;;7.82;4.93;;;;;;;3.29;53.84;95265.28;4167444;28;20059;-69
2024/02/03 05:59:25;;;;;;;8.13;4.80;;;;;;;3.37;54.21;95259.59;4162040;28;20128;-71
2024/02/03 06:01:39;;;;;;;9.75;5.53;;;;;;;3.35;53.54;95266.63;4180716;28;20399;-70
2024/02/03 06:03:41;;;;;;;9.35;4.68;;;;;;;3.26;53.73;95262.91;4190186;28;20516;-70
2024/02/03 06:05:43;;;;;;;9.85;4.72;;;;;;;3.27;54.08;95264.56;4168352;28;20054;-69
2024/02/03 06:08:04;;;;;;;7.85;4.40;;;;;;;3.31;53.90;95262.59;4175445;28;20049;-69
2024/02/03 06:10:07;;;;;;;8.32;4.72;;;;;;;3.35;53.65;95264.06;4187316;28;20051;-70
2024/02/03 06:12:09;;;;;;;9.68;4.85;;;;;;;3.33;53.60;95263.31;4183652;28;20045;-71
2024/02/03 06:14:11;;;;;;;8.82;4.35;;;;;;;3.22;53.80;95258.84;4160390;28;20049;-70
2024/02/03 06:16:13;;;;;;;9.65;3.90;;;;;;;3.30;53.72;95264.34;4179376;28;20064;-71
2024/02/03 06:18:15;;;;;;;11.35;4.10;;;;;;;3.37;53.76;95260.44;4177100;28;20075;-70
2024/02/03 06:20:17;;;;;;;7.65;4.07;;;;;;;3.41;53.44;95266.25;4160162;28;20561;-71
2024/02/03 06:22:19;;;;;;;10.85;4.50;;;;;;;3.42;53.43;95260.97;4173458;28;20067;-70
2024/02/03 06:24:20;;;;;;;8.90;4.60;;;;;;;3.49;53.29;95269.16;4184223;28;20051;-70
2024/02/03 06:26:22;;;;;;;9.15;4.53;;;;;;;3.54;53.46;95269.66;4150094;28;20116;-70
2024/02/03 06:28:25;;;;;;;11.82;4.05;;;;;;;3.53;52.65;95265.44;4156936;28;20110;-71
2024/02/03 06:30:27;;;;;;;5.60;3.72;;;;;;;3.59;53.32;95259.00;4142996;28;20042;-71
2024/02/03 06:32:29;;;;;;;9.30;4.22;;;;;;;3.65;52.45;95253.41;4178717;28;20049;-69
2024/02/03 06:34:31;;;;;;;6.88;3.45;;;;;;;3.67;52.70;95269.69;4180647;28;20049;-70
2024/02/03 06:36:32;;;;;;;7.22;3.38;;;;;;;3.71;52.35;95280.69;4160535;28;20239;-71
2024/02/03 06:38:34;;;;;;;9.00;3.60;;;;;;;3.68;52.19;95282.53;4178173;28;20045;-71
2024/02/03 06:40:36;;;;;;;6.78;4.32;;;;;;;3.72;52.35;95279.72;4190333;28;20460;-72
2024/02/03 06:42:38;;;;;;;9.25;3.85;;;;;;;3.77;52.49;95272.50;4162385;28;20103;-69
2024/02/03 06:44:40;;;;;;;13.80;4.00;;;;;;;3.89;51.97;95277.69;4187765;28;20063;-70
2024/02/03 06:46:41;;;;;;;6.75;3.45;;;;;;;3.96;51.65;95275.50;4153369;28;20136;-72
2024/02/03 06:48:44;;;;;;;9.10;4.15;;;;;;;4.08;51.50;95279.81;4160033;28;20103;-70
2024/02/03 06:50:48;;;;;;;9.35;3.65;;;;;;;4.13;51.34;95281.28;4175219;28;20047;-69
2024/02/03 06:52:50;;;;;;;11.50;3.63;;;;;;;4.29;51.22;95271.50;4182458;28;20084;-69
2024/02/03 06:54:52;;;;;;;8.52;3.95;;;;;;;4.33;51.38;95266.94;4176561;28;20049;-69
2024/02/03 06:56:55;;;;;;;5.93;3.35;;;;;;;4.21;50.90;95281.56;4181102;28;20056;-70
2024/02/03 06:58:57;;;;;;;7.82;3.60;;;;;;;4.08;50.91;95287.59;4184568;28;20499;-70
2024/02/03 07:00:58;;;;;;;6.40;3.40;;;;;;;3.98;51.07;95294.38;4177199;28;20049;-70
2024/02/03 07:03:05;;;;;;;10.02;3.65;;;;;;;3.95;51.37;95301.50;4176384;28;20532;-70
2024/02/03 07:05:07;;;;;;;13.60;3.90;;;;;;;4.03;51.27;95305.25;4169057;28;20045;-70
2024/02/03 07:07:09;;;;;;;9.77;3.60;;;;;;;4.15;51.61;95285.44;4160068;28;20041;-70
2024/02/03 07:09:11;;;;;;;7.70;3.55;;;;;;;4.23;50.80;95285.72;4178073;28;20594;-71
2024/02/03 07:11:14;;;;;;;9.25;3.55;;;;;;;4.38;51.47;95291.59;4146491;28;20532;-68
2024/02/03 07:13:17;;;;;;;7.25;3.47;;;;;;;4.28;50.97;95280.22;4153061;28;20065;-70
2024/02/03 07:15:18;;;;;;;9.00;3.70;;;;;;;4.42;50.77;95290.47;4171835;28;20064;-70
2024/02/03 07:17:21;;;;;;;7.47;3.97;;;;;;;4.53;49.94;95288.91;4178181;28;20053;-69
2024/02/03 07:19:23;;;;;;;9.32;3.60;;;;;;;4.42;49.82;95284.44;4176130;28;20051;-70
2024/02/03 07:21:25;;;;;;;10.93;3.28;;;;;;;4.47;49.94;95284.94;4160780;28;20429;-71
2024/02/03 07:23:26;;;;;;;7.95;3.40;;;;;;;4.50;49.76;95303.75;4152938;28;20062;-70
2024/02/03 07:25:28;;;;;;;6.80;3.42;;;;;;;4.55;49.40;95285.25;4176811;28;20235;-71
2024/02/03 07:27:30;;;;;;;7.38;3.38;;;;;;;4.43;49.95;95299.06;4151690;28;20452;-71
2024/02/03 07:29:32;;;;;;;10.48;3.10;;;;;;;4.56;49.73;95283.47;4160460;28;20449;-70
2024/02/03 07:31:34;;;;;;;8.25;3.55;;;;;;;4.60;49.13;95284.91;4177902;28;20049;-69
2024/02/03 07:33:36;;;;;;;8.50;3.50;;;;;;;4.78;48.47;95281.03;4160888;28;20045;-71
2024/02/03 07:35:38;;;;;;;8.40;3.20;;;;;;;4.75;49.16;95273.44;4159289;28;20140;-70
2024/02/03 07:37:40;;;;;;;8.00;3.15;;;;;;;4.71;48.84;95284.97;4169459;28;20136;-71
2024/02/03 07:39:41;;;;;;;6.00;3.22;;;;;;;4.68;48.83;95274.84;4163047;28;20063;-69
2024/02/03 07:41:43;;;;;;;9.38;3.17;;;;;;;4.72;49.35;95271.91;4183963;28;20140;-70
2024/02/03 07:43:45;;;;;;;5.57;2.85;;;;;;;4.73;48.64;95277.91;4157042;28;20145;-71
2024/02/03 07:45:47;;;;;;;9.90;3.40;;;;;;;4.73;48.33;95277.91;4175481;28;20098;-71
2024/02/03 07:47:49;;;;;;;8.43;3.67;;;;;;;4.83;48.71;95276.31;4181349;28;20072;-71
2024/02/03 07:49:51;;;;;;;8.48;3.10;;;;;;;4.90;48.09;95271.53;4185921;28;20123;-70
2024/02/03 07:51:53;;;;;;;9.23;3.10;;;;;;;5.02;48.35;95278.44;4164847;28;20140;-70
2024/02/03 07:53:55;;;;;;;6.70;2.83;;;;;;;5.00;48.59;95271.69;4182291;28;20067;-70
2024/02/03 07:55:57;;;;;;;8.20;3.53;;;;;;;4.97;48.28;95275.34;4161973;28;20049;-69
2024/02/03 07:57:59;;;;;;;7.68;3.45;;;;;;;4.97;48.24;95271.91;4177470;28;20043;-70
2024/02/03 08:00:01;;;;;;;5.40;2.80;;;;;;;5.11;48.53;95267.38;4146710;28;20058;-69
2024/02/03 08:02:03;;;;;;;8.98;2.60;;;;;;;5.11;48.12;95264.78;4159799;28;20061;-70
2024/02/03 08:04:05;;;;;;;9.13;3.10;;;;;;;4.93;48.16;95277.34;4183448;28;20131;-72
2024/02/03 08:06:07;;;;;;;6.68;3.00;;;;;;;4.80;48.96;95270.53;4188305;28;20054;-71
2024/02/03 08:08:08;;;;;;;9.80;2.67;;;;;;;4.93;48.43;95274.72;4165773;28;20080;-72
2024/02/03 08:10:10;;;;;;;4.32;2.80;;;;;;;4.82;48.67;95287.66;4180570;28;20490;-72
2024/02/03 08:12:12;;;;;;;5.47;2.72;;;;;;;4.95;48.01;95279.81;4180133;28;20127;-70
2024/02/03 08:14:14;;;;;;;6.75;2.83;;;;;;;5.05;48.33;95290.38;4179534;28;20068;-71
2024/02/03 08:16:16;;;;;;;6.45;2.95;;;;;;;5.05;48.05;95280.78;4177339;28;20091;-71
2024/02/03 08:18:17;;;;;;;4.30;2.67;;;;;;;4.90;47.87;95290.53;4182458;28;20058;-70
2024/02/03 08:20:21;;;;;;;6.28;3.00;;;;;;;4.88;47.97;95283.78;4184643;28;20486;-70
2024/02/03 08:22:23;;;;;;;4.97;2.70;;;;;;;4.97;48.43;95295.28;4187033;28;20060;-71
2024/02/03 08:24:25;;;;;;;16.52;3.65;;;;;;;4.96;47.49;95291.03;4185569;28;20049;-71
2024/02/03 08:26:27;;;;;;;5.72;2.88;;;;;;;5.06;48.29;95284.25;4189236;28;20130;-70
2024/02/03 08:28:28;;;;;;;6.07;3.08;;;;;;;5.12;48.19;95263.84;4188483;28;20574;-71
2024/02/03 08:30:30;;;;;;;11.38;3.70;;;;;;;5.24;47.32;95269.91;4159047;28;20049;-71
2024/02/03 08:32:32;;;;;;;7.28;3.65;;;;;;;5.33;47.72;95269.25;4178570;28;20552;-71
2024/02/03 08:34:34;;;;;;;10.38;4.30;;;;;;;5.32;47.45;95277.16;4175735;28;20059;-70
2024/02/03 08:36:36;;;;;;;6.88;4.38;;;;;;;5.31;47.24;95278.91;4166346;28;20064;-72
2024/02/03 08:38:37;;;;;;;7.85;3.67;;;;;;;5.32;47.84;95271.94;4168857;28;20137;-70
2024/02/03 08:40:39;;;;;;;12.27;3.80;;;;;;;5.42;47.90;95269.47;4181048;28;20040;-70
2024/02/03 08:42:41;;;;;;;6.10;3.53;;;;;;;5.50;47.77;95265.38;4185201;28;20056;-70
2024/02/03 08:44:43;;;;;;;7.13;3.67;;;;;;;5.32;47.61;95267.56;4173972;28;20101;-70
2024/02/03 08:46:46;;;;;;;5.82;3.20;;;;;;;5.37;47.79;95261.22;4181999;28;20088;-70
2024/02/03 08:48:47;;;;;;;9.65;3.83;;;;;;;5.50;47.69;95254.16;4176697;28;20048;-71
2024/02/03 08:50:50;;;;;;;11.27;5.53;;;;;;;5.43;47.75;95251.19;4183967;28;20048;-71
2024/02/03 08:52:51;;;;;;;13.95;5.53;;;;;;;5.31;47.96;95254.69;4168095;28;20053;-71
2024/02/03 08:54:53;;;;;;;9.65;4.28;;;;;;;5.25;48.68;95252.56;4182187;28;20171;-70
2024/02/03 08:56:55;;;;;;;6.72;3.90;;;;;;;5.33;48.34;95238.06;4171260;28;20048;-70
2024/02/03 08:58:57;;;;;;;8.70;3.90;;;;;;;5.42;48.17;95246.09;4165545;28;20042;-70
2024/02/03 09:00:59;;;;;;;9.68;4.50;;;;;;;5.52;48.29;95257.47;4172657;28;20468;-71
2024/02/03 09:03:01;;;;;;;11.43;5.45;;;;;;;5.66;47.59;95259.88;4174414;28;20056;-70
2024/02/03 09:05:03;;;;;;;8.90;4.15;;;;;;;5.67;48.15;95243.31;4176642;28;20108;-73
2024/02/03 09:07:05;;;;;;;9.27;4.10;;;;;;;5.50;48.44;95247.19;4162420;28;20053;-70
2024/02/03 09:09:07;;;;;;;7.43;3.80;;;;;;;5.61;48.20;95248.97;4181442;28;20048;-71
2024/02/03 09:11:09;;;;;;;7.43;3.45;;;;;;;5.67;48.32;95261.50;4182568;28;20547;-71
2024/02/03 09:13:11;;;;;;;7.88;3.42;;;;;;;5.67;47.93;95268.50;4182329;28;20052;-72
2024/02/03 09:15:12;;;;;;;7.50;3.50;;;;;;;5.54;47.87;95271.19;4181902;28;20075;-71
2024/02/03 09:17:14;;;;;;;5.80;3.38;;;;;;;5.57;48.05;95268.38;4166129;28;20044;-70
2024/02/03 09:19:16;;;;;;;8.35;3.70;;;;;;;5.49;48.25;95261.13;4183503;28;20049;-70
2024/02/03 09:21:18;;;;;;;8.10;4.18;;;;;;;5.66;47.73;95278.06;4183626;28;20399;-71
2024/02/03 09:23:21;;;;;;;8.32;3.80;;;;;;;5.70;48.09;95265.66;4164666;28;20393;-70
2024/02/03 09:25:24;;;;;;;8.18;4.05;;;;;;;5.72;47.57;95259.41;4175979;28;20137;-72
2024/02/03 09:27:25;;;;;;;7.63;3.10;;;;;;;5.77;47.89;95279.03;4177739;28;20468;-71
2024/02/03 09:29:27;;;;;;;6.43;3.05;;;;;;;5.75;47.37;95274.78;4167688;28;20067;-71
2024/02/03 09:31:29;;;;;;;6.47;2.78;;;;;;;5.80;48.26;95264.03;4192437;28;20094;-71
2024/02/03 09:33:31;;;;;;;4.47;2.90;;;;;;;5.73;48.08;95260.25;4174358;28;20049;-71
2024/02/03 09:35:33;;;;;;;8.77;3.17;;;;;;;5.74;47.54;95262.72;4194663;28;20066;-71
2024/02/03 09:37:36;;;;;;;6.97;3.50;;;;;;;5.73;47.46;95253.25;4185026;28;20112;-70
2024/02/03 09:39:44;;;;;;;5.65;3.70;;;;;;;5.86;47.27;95240.16;4187269;28;20052;-70